N2JW KORL-KTEB
Flight info
| Callsign | N2JW |
|---|---|
| Flight time | N/A |
| Altitude | 23000 |
| Route | NYTES WORMS GUANO BKENI VIYAP Q87 NOWAE BBDOL BOOYA SWANN MAZIE3 |
| Aircraft | PC12/L-SDFGRWY/S |
Departure
| Time | 2026-04-24 02:50 |
|---|---|
| Airport | Orlando Executive Airport (KORL) |
Arrival
| Time | N/A |
|---|---|
| Airport | Teterboro Airport (KTEB) |
| Time | Latitude | Longitude | Altitude | Speed | Heading |
|---|---|---|---|---|---|
| 2026-04-24 02:35 | 28.54807 | -81.33829 | 118 ft | 0 kts | 36° |
| 2026-04-24 02:43 | 28.54810 | -81.33827 | 118 ft | 2 kts | 8° |
| 2026-04-24 02:43 | 28.54817 | -81.33846 | 117 ft | 6 kts | 266° |
| 2026-04-24 02:44 | 28.54825 | -81.33909 | 119 ft | 10 kts | 293° |
| 2026-04-24 02:44 | 28.54875 | -81.33981 | 119 ft | 11 kts | 311° |
| 2026-04-24 02:44 | 28.54921 | -81.34042 | 118 ft | 9 kts | 311° |
| 2026-04-24 02:44 | 28.54938 | -81.34066 | 117 ft | 2 kts | 279° |
| 2026-04-24 02:45 | 28.54937 | -81.34068 | 118 ft | 0 kts | 227° |
| 2026-04-24 02:48 | 28.54936 | -81.34068 | 118 ft | 0 kts | 227° |
| 2026-04-24 02:48 | 28.54912 | -81.34095 | 119 ft | 9 kts | 217° |
| 2026-04-24 02:48 | 28.54870 | -81.34111 | 118 ft | 5 kts | 143° |
| 2026-04-24 02:49 | 28.54853 | -81.34093 | 118 ft | 0 kts | 130° |
| 2026-04-24 02:49 | 28.54811 | -81.34036 | 117 ft | 33 kts | 130° |
| 2026-04-24 02:49 | 28.54538 | -81.33680 | 111 ft | 83 kts | 131° |
| 2026-04-24 02:49 | 28.54106 | -81.33128 | 281 ft | 102 kts | 130° |
| 2026-04-24 02:50 | 28.53607 | -81.32477 | 618 ft | 119 kts | 130° |
| 2026-04-24 02:50 | 28.53042 | -81.31760 | 1000 ft | 126 kts | 132° |
| 2026-04-24 02:50 | 28.52479 | -81.31006 | 1560 ft | 122 kts | 130° |
| 2026-04-24 02:50 | 28.51948 | -81.30281 | 2266 ft | 116 kts | 130° |
| 2026-04-24 02:51 | 28.51436 | -81.29557 | 2804 ft | 121 kts | 130° |
| 2026-04-24 02:51 | 28.50865 | -81.28761 | 3241 ft | 134 kts | 130° |
| 2026-04-24 02:51 | 28.50262 | -81.27933 | 3815 ft | 138 kts | 130° |
| 2026-04-24 02:51 | 28.49769 | -81.26995 | 4373 ft | 144 kts | 96° |
| 2026-04-24 02:52 | 28.50233 | -81.26026 | 4973 ft | 151 kts | 33° |
| 2026-04-24 02:52 | 28.51243 | -81.25699 | 5580 ft | 152 kts | 9° |
| 2026-04-24 02:52 | 28.52280 | -81.25464 | 6218 ft | 152 kts | 12° |
| 2026-04-24 02:52 | 28.53306 | -81.25173 | 6837 ft | 152 kts | 12° |
| 2026-04-24 02:53 | 28.54336 | -81.24868 | 7407 ft | 153 kts | 13° |
| 2026-04-24 02:53 | 28.55375 | -81.24555 | 7990 ft | 155 kts | 13° |
| 2026-04-24 02:53 | 28.56399 | -81.24244 | 8568 ft | 156 kts | 13° |
| 2026-04-24 02:53 | 28.57475 | -81.23919 | 9164 ft | 158 kts | 13° |
| 2026-04-24 02:54 | 28.58538 | -81.23596 | 9772 ft | 159 kts | 13° |
| 2026-04-24 02:54 | 28.59613 | -81.23269 | 10337 ft | 161 kts | 13° |
| 2026-04-24 02:54 | 28.60702 | -81.22943 | 10868 ft | 162 kts | 10° |
| 2026-04-24 02:54 | 28.61806 | -81.22955 | 11390 ft | 161 kts | 345° |
| 2026-04-24 02:55 | 28.62876 | -81.23355 | 11933 ft | 162 kts | 339° |
| 2026-04-24 02:55 | 28.63954 | -81.23761 | 12481 ft | 164 kts | 339° |
| 2026-04-24 02:55 | 28.65043 | -81.24174 | 13027 ft | 166 kts | 339° |
| 2026-04-24 02:55 | 28.66142 | -81.24592 | 13575 ft | 167 kts | 339° |
| 2026-04-24 02:56 | 28.67253 | -81.25015 | 14092 ft | 169 kts | 339° |
| 2026-04-24 02:56 | 28.68383 | -81.25447 | 14534 ft | 174 kts | 339° |
| 2026-04-24 02:56 | 28.69530 | -81.25883 | 15023 ft | 175 kts | 339° |
| 2026-04-24 02:56 | 28.70689 | -81.26324 | 15507 ft | 176 kts | 339° |
| 2026-04-24 02:57 | 28.71861 | -81.26771 | 16000 ft | 178 kts | 339° |
| 2026-04-24 02:57 | 28.73024 | -81.27215 | 16487 ft | 179 kts | 338° |
| 2026-04-24 02:57 | 28.74210 | -81.27668 | 16983 ft | 180 kts | 338° |
| 2026-04-24 02:57 | 28.75407 | -81.28124 | 17483 ft | 182 kts | 338° |
| 2026-04-24 02:58 | 28.76606 | -81.28582 | 17998 ft | 182 kts | 337° |
| 2026-04-24 02:58 | 28.77815 | -81.29044 | 18480 ft | 184 kts | 337° |
| 2026-04-24 02:58 | 28.79037 | -81.29510 | 18915 ft | 185 kts | 337° |
| 2026-04-24 02:58 | 28.80264 | -81.29979 | 19352 ft | 186 kts | 337° |
| 2026-04-24 02:59 | 28.81502 | -81.30452 | 19795 ft | 188 kts | 337° |
| 2026-04-24 02:59 | 28.82735 | -81.30923 | 20237 ft | 189 kts | 337° |
| 2026-04-24 02:59 | 28.83985 | -81.31401 | 20676 ft | 190 kts | 337° |
| 2026-04-24 02:59 | 28.85248 | -81.31884 | 21124 ft | 191 kts | 337° |
| 2026-04-24 03:00 | 28.86515 | -81.32368 | 21568 ft | 192 kts | 337° |
| 2026-04-24 03:00 | 28.87663 | -81.32807 | 21970 ft | 194 kts | 337° |
| 2026-04-24 03:00 | 28.88856 | -81.33264 | 22385 ft | 195 kts | 337° |
| 2026-04-24 03:00 | 28.90144 | -81.33757 | 22829 ft | 196 kts | 337° |
| 2026-04-24 03:01 | 28.91466 | -81.34264 | 23112 ft | 207 kts | 337° |
| 2026-04-24 03:01 | 28.92920 | -81.34822 | 23120 ft | 228 kts | 338° |
| 2026-04-24 03:01 | 28.94487 | -81.35419 | 23124 ft | 245 kts | 338° |
| 2026-04-24 03:01 | 28.96155 | -81.36055 | 23124 ft | 258 kts | 338° |
| 2026-04-24 03:02 | 28.97862 | -81.36708 | 23123 ft | 267 kts | 339° |
| 2026-04-24 03:02 | 28.99641 | -81.37389 | 23122 ft | 272 kts | 339° |
| 2026-04-24 03:02 | 29.01474 | -81.38013 | 23119 ft | 278 kts | 347° |
| 2026-04-24 03:02 | 29.03416 | -81.38222 | 23123 ft | 282 kts | 353° |
| 2026-04-24 03:03 | 29.05381 | -81.38402 | 23119 ft | 283 kts | 352° |
| 2026-04-24 03:03 | 29.07351 | -81.38599 | 23121 ft | 284 kts | 352° |
| 2026-04-24 03:03 | 29.09328 | -81.38794 | 23120 ft | 285 kts | 353° |
| 2026-04-24 03:03 | 29.11315 | -81.38758 | 23118 ft | 288 kts | 2° |
| 2026-04-24 03:04 | 29.13310 | -81.38582 | 23114 ft | 288 kts | 1° |
| 2026-04-24 03:04 | 29.15313 | -81.38429 | 23114 ft | 288 kts | 1° |
| 2026-04-24 03:04 | 29.17293 | -81.38280 | 23114 ft | 288 kts | 1° |
| 2026-04-24 03:04 | 29.19291 | -81.38122 | 23113 ft | 288 kts | 1° |
| 2026-04-24 03:05 | 29.21296 | -81.37963 | 23112 ft | 288 kts | 1° |
| 2026-04-24 03:05 | 29.23295 | -81.37806 | 23111 ft | 288 kts | 1° |
| 2026-04-24 03:05 | 29.25299 | -81.37648 | 23109 ft | 288 kts | 1° |
| 2026-04-24 03:05 | 29.27301 | -81.37491 | 23105 ft | 289 kts | 1° |
| 2026-04-24 03:06 | 29.29308 | -81.37332 | 23105 ft | 288 kts | 1° |
| 2026-04-24 03:06 | 29.31309 | -81.37175 | 23106 ft | 288 kts | 1° |
| 2026-04-24 03:06 | 29.33311 | -81.37017 | 23108 ft | 288 kts | 1° |
| 2026-04-24 03:06 | 29.35316 | -81.36859 | 23109 ft | 288 kts | 1° |
| 2026-04-24 03:07 | 29.37287 | -81.36703 | 23112 ft | 288 kts | 1° |
| 2026-04-24 03:07 | 29.39281 | -81.36542 | 23110 ft | 285 kts | 2° |
| 2026-04-24 03:07 | 29.41258 | -81.36377 | 23109 ft | 286 kts | 0° |
| 2026-04-24 03:07 | 29.43246 | -81.36244 | 23111 ft | 287 kts | 1° |
| 2026-04-24 03:08 | 29.45243 | -81.36085 | 23110 ft | 287 kts | 1° |
| 2026-04-24 03:08 | 29.49237 | -81.35756 | 23111 ft | 288 kts | 1° |
| 2026-04-24 03:08 | 29.51238 | -81.35600 | 23111 ft | 288 kts | 1° |
| 2026-04-24 03:09 | 29.53237 | -81.35442 | 23094 ft | 288 kts | 1° |
| 2026-04-24 03:09 | 29.55216 | -81.35285 | 23097 ft | 288 kts | 1° |
| 2026-04-24 03:09 | 29.57224 | -81.35126 | 23096 ft | 288 kts | 1° |
| 2026-04-24 03:09 | 29.59220 | -81.34968 | 23096 ft | 288 kts | 1° |
| 2026-04-24 03:10 | 29.61218 | -81.34809 | 23098 ft | 287 kts | 1° |
| 2026-04-24 03:10 | 29.63210 | -81.34651 | 23100 ft | 287 kts | 1° |
| 2026-04-24 03:10 | 29.65198 | -81.34664 | 23090 ft | 285 kts | 354° |
| 2026-04-24 03:10 | 29.67179 | -81.34788 | 23094 ft | 285 kts | 354° |
| 2026-04-24 03:11 | 29.69160 | -81.34897 | 23098 ft | 285 kts | 355° |
| 2026-04-24 03:11 | 29.71144 | -81.35001 | 23098 ft | 285 kts | 355° |
| 2026-04-24 03:11 | 29.73125 | -81.35109 | 23099 ft | 285 kts | 355° |
| 2026-04-24 03:11 | 29.74437 | -81.35181 | 23100 ft | 285 kts | 355° |
| 2026-04-24 03:12 | 29.76416 | -81.35290 | 23101 ft | 285 kts | 355° |
| 2026-04-24 03:12 | 29.78399 | -81.35398 | 23102 ft | 285 kts | 355° |
| 2026-04-24 03:12 | 29.80380 | -81.35506 | 23103 ft | 285 kts | 355° |
| 2026-04-24 03:12 | 29.82361 | -81.35615 | 23104 ft | 285 kts | 355° |
| 2026-04-24 03:13 | 29.84344 | -81.35724 | 23112 ft | 285 kts | 356° |
| 2026-04-24 03:13 | 29.86328 | -81.35832 | 23113 ft | 285 kts | 356° |
| 2026-04-24 03:13 | 29.88311 | -81.35941 | 23114 ft | 285 kts | 356° |
| 2026-04-24 03:13 | 29.90292 | -81.36049 | 23114 ft | 285 kts | 356° |
| 2026-04-24 03:14 | 29.92280 | -81.36159 | 23114 ft | 285 kts | 356° |
| 2026-04-24 03:14 | 29.94269 | -81.36268 | 23113 ft | 285 kts | 356° |
| 2026-04-24 03:14 | 29.96226 | -81.36376 | 23113 ft | 285 kts | 356° |
| 2026-04-24 03:14 | 29.98212 | -81.36484 | 23113 ft | 285 kts | 356° |
| 2026-04-24 03:15 | 30.00197 | -81.36594 | 23109 ft | 285 kts | 356° |
| 2026-04-24 03:15 | 30.02182 | -81.36703 | 23109 ft | 285 kts | 356° |
| 2026-04-24 03:15 | 30.04167 | -81.36812 | 23109 ft | 285 kts | 356° |
| 2026-04-24 03:15 | 30.06129 | -81.36920 | 23107 ft | 285 kts | 356° |
| 2026-04-24 03:16 | 30.08112 | -81.37029 | 23104 ft | 285 kts | 356° |
| 2026-04-24 03:16 | 30.10095 | -81.37138 | 23102 ft | 285 kts | 356° |
| 2026-04-24 03:16 | 30.12082 | -81.37248 | 23106 ft | 285 kts | 357° |
| 2026-04-24 03:16 | 30.14067 | -81.37357 | 23103 ft | 286 kts | 357° |
| 2026-04-24 03:17 | 30.16059 | -81.37466 | 23098 ft | 286 kts | 357° |
| 2026-04-24 03:17 | 30.18047 | -81.37577 | 23096 ft | 287 kts | 357° |
| 2026-04-24 03:17 | 30.20043 | -81.37687 | 23094 ft | 287 kts | 357° |
| 2026-04-24 03:17 | 30.22034 | -81.37796 | 23092 ft | 287 kts | 357° |
| 2026-04-24 03:18 | 30.24029 | -81.37906 | 23091 ft | 287 kts | 357° |
| 2026-04-24 03:18 | 30.26031 | -81.38017 | 23092 ft | 287 kts | 357° |
| 2026-04-24 03:18 | 30.28028 | -81.38128 | 23093 ft | 287 kts | 357° |
| 2026-04-24 03:18 | 30.29995 | -81.38236 | 23094 ft | 287 kts | 357° |
| 2026-04-24 03:19 | 30.31989 | -81.38347 | 23095 ft | 287 kts | 357° |
| 2026-04-24 03:19 | 30.33987 | -81.38457 | 23095 ft | 287 kts | 357° |
| 2026-04-24 03:19 | 30.35978 | -81.38568 | 23095 ft | 287 kts | 357° |
| 2026-04-24 03:19 | 30.37976 | -81.38678 | 23094 ft | 287 kts | 357° |
| 2026-04-24 03:20 | 30.39969 | -81.38788 | 23094 ft | 287 kts | 357° |
| 2026-04-24 03:20 | 30.41966 | -81.38899 | 23094 ft | 287 kts | 357° |
| 2026-04-24 03:20 | 30.43958 | -81.39010 | 23094 ft | 287 kts | 357° |
| 2026-04-24 03:20 | 30.45950 | -81.39120 | 23094 ft | 287 kts | 357° |
| 2026-04-24 03:21 | 30.47946 | -81.39231 | 23093 ft | 287 kts | 357° |
| 2026-04-24 03:21 | 30.49942 | -81.39341 | 23092 ft | 287 kts | 357° |
| 2026-04-24 03:21 | 30.51931 | -81.39452 | 23109 ft | 287 kts | 357° |
| 2026-04-24 03:21 | 30.53925 | -81.39563 | 23111 ft | 287 kts | 357° |
| 2026-04-24 03:22 | 30.55921 | -81.39673 | 23111 ft | 287 kts | 357° |
| 2026-04-24 03:22 | 30.57913 | -81.39785 | 23111 ft | 287 kts | 357° |
| 2026-04-24 03:22 | 30.59880 | -81.39894 | 23111 ft | 287 kts | 357° |
| 2026-04-24 03:22 | 30.61875 | -81.40005 | 23110 ft | 287 kts | 357° |
| 2026-04-24 03:23 | 30.63871 | -81.40116 | 23110 ft | 287 kts | 357° |
| 2026-04-24 03:23 | 30.65867 | -81.40227 | 23110 ft | 287 kts | 357° |
| 2026-04-24 03:23 | 30.67859 | -81.40339 | 23114 ft | 287 kts | 358° |
| 2026-04-24 03:23 | 30.69860 | -81.40450 | 23108 ft | 287 kts | 358° |
| 2026-04-24 03:24 | 30.71856 | -81.40561 | 23106 ft | 287 kts | 358° |
| 2026-04-24 03:24 | 30.73850 | -81.40672 | 23103 ft | 287 kts | 358° |
| 2026-04-24 03:24 | 30.75850 | -81.40784 | 23100 ft | 287 kts | 358° |
| 2026-04-24 03:24 | 30.77848 | -81.40895 | 23098 ft | 287 kts | 358° |
| 2026-04-24 03:25 | 30.79846 | -81.41007 | 23091 ft | 287 kts | 358° |
| 2026-04-24 03:25 | 30.81814 | -81.41117 | 23088 ft | 287 kts | 358° |
| 2026-04-24 03:25 | 30.83809 | -81.41229 | 23085 ft | 287 kts | 358° |
| 2026-04-24 03:25 | 30.85811 | -81.41341 | 23082 ft | 287 kts | 358° |
| 2026-04-24 03:26 | 30.87794 | -81.41452 | 23084 ft | 287 kts | 358° |
| 2026-04-24 03:26 | 30.89795 | -81.41564 | 23081 ft | 287 kts | 358° |
| 2026-04-24 03:26 | 30.91796 | -81.41676 | 23079 ft | 287 kts | 358° |
| 2026-04-24 03:26 | 30.93788 | -81.41787 | 23076 ft | 287 kts | 358° |
| 2026-04-24 03:27 | 30.95789 | -81.41899 | 23075 ft | 287 kts | 358° |
| 2026-04-24 03:27 | 30.97764 | -81.42010 | 23072 ft | 287 kts | 358° |
| 2026-04-24 03:27 | 30.99784 | -81.42124 | 23072 ft | 288 kts | 358° |
| 2026-04-24 03:27 | 31.01762 | -81.42235 | 23073 ft | 288 kts | 358° |
| 2026-04-24 03:28 | 31.03783 | -81.42348 | 23077 ft | 288 kts | 358° |
| 2026-04-24 03:28 | 31.05765 | -81.42459 | 23077 ft | 288 kts | 358° |
| 2026-04-24 03:28 | 31.07761 | -81.42571 | 23077 ft | 288 kts | 358° |
| 2026-04-24 03:28 | 31.09771 | -81.42684 | 23077 ft | 288 kts | 358° |
| 2026-04-24 03:29 | 31.11767 | -81.42796 | 23077 ft | 288 kts | 358° |
| 2026-04-24 03:29 | 31.13770 | -81.42909 | 23077 ft | 288 kts | 358° |
| 2026-04-24 03:29 | 31.15774 | -81.43022 | 23076 ft | 288 kts | 358° |
| 2026-04-24 03:29 | 31.17771 | -81.43135 | 23076 ft | 288 kts | 358° |
| 2026-04-24 03:30 | 31.19758 | -81.43246 | 23078 ft | 288 kts | 358° |
| 2026-04-24 03:30 | 31.21762 | -81.43359 | 23095 ft | 288 kts | 358° |
| 2026-04-24 03:30 | 31.23765 | -81.43472 | 23095 ft | 288 kts | 358° |
| 2026-04-24 03:30 | 31.25741 | -81.43223 | 23103 ft | 287 kts | 18° |
| 2026-04-24 03:31 | 31.27568 | -81.42313 | 23108 ft | 286 kts | 26° |
| 2026-04-24 03:31 | 31.29374 | -81.41314 | 23109 ft | 287 kts | 26° |
| 2026-04-24 03:31 | 31.31161 | -81.40338 | 23111 ft | 287 kts | 25° |
| 2026-04-24 03:31 | 31.32994 | -81.39351 | 23111 ft | 287 kts | 25° |
| 2026-04-24 03:32 | 31.34788 | -81.38382 | 23104 ft | 287 kts | 25° |
| 2026-04-24 03:32 | 31.36606 | -81.37395 | 23103 ft | 287 kts | 25° |
| 2026-04-24 03:32 | 31.38415 | -81.36413 | 23101 ft | 287 kts | 25° |
| 2026-04-24 03:32 | 31.40230 | -81.35429 | 23099 ft | 287 kts | 25° |
| 2026-04-24 03:33 | 31.42047 | -81.34443 | 23098 ft | 287 kts | 25° |
| 2026-04-24 03:33 | 31.43857 | -81.33460 | 23096 ft | 287 kts | 25° |
| 2026-04-24 03:33 | 31.45674 | -81.32473 | 23091 ft | 287 kts | 25° |
| 2026-04-24 03:33 | 31.47484 | -81.31490 | 23088 ft | 287 kts | 25° |
| 2026-04-24 03:34 | 31.49300 | -81.30502 | 23084 ft | 287 kts | 25° |
| 2026-04-24 03:34 | 31.51110 | -81.29518 | 23081 ft | 287 kts | 25° |
| 2026-04-24 03:34 | 31.52929 | -81.28528 | 23078 ft | 288 kts | 25° |
| 2026-04-24 03:34 | 31.54743 | -81.27541 | 23075 ft | 288 kts | 25° |
| 2026-04-24 03:35 | 31.56566 | -81.26548 | 23070 ft | 288 kts | 25° |
| 2026-04-24 03:35 | 31.58401 | -81.25548 | 23068 ft | 288 kts | 25° |
| 2026-04-24 03:35 | 31.60225 | -81.24554 | 23068 ft | 288 kts | 25° |
| 2026-04-24 03:35 | 31.62047 | -81.23561 | 23068 ft | 289 kts | 25° |
| 2026-04-24 03:36 | 31.63867 | -81.22568 | 23071 ft | 288 kts | 25° |
| 2026-04-24 03:36 | 31.65666 | -81.21586 | 23071 ft | 288 kts | 25° |
| 2026-04-24 03:36 | 31.67484 | -81.20593 | 23062 ft | 288 kts | 25° |
| 2026-04-24 03:36 | 31.69302 | -81.19600 | 23061 ft | 288 kts | 25° |
| 2026-04-24 03:37 | 31.71121 | -81.18606 | 23059 ft | 288 kts | 25° |
| 2026-04-24 03:37 | 31.72941 | -81.17611 | 23058 ft | 288 kts | 25° |
| 2026-04-24 03:37 | 31.74768 | -81.16612 | 23058 ft | 288 kts | 25° |
| 2026-04-24 03:37 | 31.76595 | -81.15612 | 23058 ft | 289 kts | 25° |
| 2026-04-24 03:38 | 31.78396 | -81.14627 | 23059 ft | 288 kts | 25° |
| 2026-04-24 03:38 | 31.80217 | -81.13629 | 23058 ft | 288 kts | 25° |
| 2026-04-24 03:38 | 31.82032 | -81.12629 | 23058 ft | 288 kts | 25° |
| 2026-04-24 03:38 | 31.83849 | -81.11635 | 23057 ft | 288 kts | 25° |
| 2026-04-24 03:39 | 31.85671 | -81.10642 | 23059 ft | 288 kts | 25° |
| 2026-04-24 03:39 | 31.87491 | -81.09643 | 23059 ft | 288 kts | 25° |
| 2026-04-24 03:39 | 31.89311 | -81.08642 | 23059 ft | 288 kts | 25° |
| 2026-04-24 03:39 | 31.91129 | -81.07644 | 23058 ft | 288 kts | 25° |
| 2026-04-24 03:40 | 31.92921 | -81.06660 | 23055 ft | 288 kts | 25° |
| 2026-04-24 03:40 | 31.94741 | -81.05659 | 23055 ft | 288 kts | 25° |
| 2026-04-24 03:40 | 31.96555 | -81.04662 | 23055 ft | 288 kts | 25° |
| 2026-04-24 03:40 | 31.98369 | -81.03664 | 23054 ft | 288 kts | 25° |
| 2026-04-24 03:41 | 32.00186 | -81.02664 | 23054 ft | 288 kts | 25° |
| 2026-04-24 03:41 | 32.02000 | -81.01655 | 23054 ft | 288 kts | 25° |
| 2026-04-24 03:41 | 32.03811 | -81.00637 | 23056 ft | 288 kts | 25° |
| 2026-04-24 03:41 | 32.05623 | -80.99622 | 23056 ft | 288 kts | 25° |
| 2026-04-24 03:42 | 32.07445 | -80.98606 | 23059 ft | 289 kts | 25° |
| 2026-04-24 03:42 | 32.09258 | -80.97592 | 23060 ft | 289 kts | 25° |
| 2026-04-24 03:42 | 32.11077 | -80.96573 | 23060 ft | 289 kts | 24° |
| 2026-04-24 03:42 | 32.12870 | -80.95570 | 23060 ft | 289 kts | 24° |
| 2026-04-24 03:43 | 32.14683 | -80.94553 | 23060 ft | 289 kts | 25° |
| 2026-04-24 03:43 | 32.16498 | -80.93536 | 23081 ft | 289 kts | 25° |
| 2026-04-24 03:43 | 32.18311 | -80.92520 | 23082 ft | 289 kts | 25° |
| 2026-04-24 03:43 | 32.20130 | -80.91500 | 23089 ft | 289 kts | 24° |
| 2026-04-24 03:44 | 32.21948 | -80.90479 | 23083 ft | 289 kts | 25° |
| 2026-04-24 03:44 | 32.23742 | -80.89471 | 23084 ft | 288 kts | 25° |
| 2026-04-24 03:44 | 32.25578 | -80.88441 | 23084 ft | 288 kts | 25° |
| 2026-04-24 03:44 | 32.27367 | -80.87437 | 23085 ft | 288 kts | 24° |
| 2026-04-24 03:45 | 32.29200 | -80.86406 | 23094 ft | 288 kts | 25° |
| 2026-04-24 03:45 | 32.30986 | -80.85400 | 23093 ft | 288 kts | 24° |
| 2026-04-24 03:45 | 32.32799 | -80.84381 | 23093 ft | 288 kts | 24° |
| 2026-04-24 03:45 | 32.34605 | -80.83363 | 23077 ft | 288 kts | 24° |
| 2026-04-24 03:46 | 32.36415 | -80.82345 | 23074 ft | 288 kts | 24° |
| 2026-04-24 03:46 | 32.38224 | -80.81327 | 23074 ft | 288 kts | 25° |
| 2026-04-24 03:46 | 32.40029 | -80.80309 | 23076 ft | 288 kts | 24° |
| 2026-04-24 03:46 | 32.41839 | -80.79287 | 23076 ft | 288 kts | 24° |
| 2026-04-24 03:47 | 32.43648 | -80.78266 | 23076 ft | 288 kts | 24° |
| 2026-04-24 03:47 | 32.45458 | -80.77247 | 23077 ft | 288 kts | 25° |
| 2026-04-24 03:47 | 32.47270 | -80.76223 | 23077 ft | 288 kts | 24° |
| 2026-04-24 03:47 | 32.49083 | -80.75198 | 23075 ft | 288 kts | 25° |
| 2026-04-24 03:48 | 32.50896 | -80.74173 | 23077 ft | 289 kts | 24° |
| 2026-04-24 03:48 | 32.52684 | -80.73162 | 23077 ft | 289 kts | 24° |
| 2026-04-24 03:48 | 32.54497 | -80.72135 | 23077 ft | 289 kts | 24° |
| 2026-04-24 03:48 | 32.56315 | -80.71107 | 23080 ft | 289 kts | 24° |
| 2026-04-24 03:49 | 32.58128 | -80.70081 | 23078 ft | 288 kts | 24° |
| 2026-04-24 03:49 | 32.59937 | -80.69056 | 23075 ft | 288 kts | 24° |
| 2026-04-24 03:49 | 32.61748 | -80.68030 | 23075 ft | 288 kts | 25° |
| 2026-04-24 03:49 | 32.63556 | -80.67004 | 23074 ft | 288 kts | 24° |
| 2026-04-24 03:50 | 32.65364 | -80.65979 | 23074 ft | 288 kts | 24° |
| 2026-04-24 03:50 | 32.67173 | -80.64952 | 23074 ft | 288 kts | 24° |
| 2026-04-24 03:50 | 32.68983 | -80.63925 | 23074 ft | 288 kts | 25° |
| 2026-04-24 03:50 | 32.70789 | -80.62900 | 23082 ft | 288 kts | 24° |
| 2026-04-24 03:51 | 32.72596 | -80.61858 | 23074 ft | 288 kts | 25° |
| 2026-04-24 03:51 | 32.74384 | -80.60784 | 23074 ft | 288 kts | 25° |
| 2026-04-24 03:51 | 32.76174 | -80.59708 | 23074 ft | 288 kts | 26° |
| 2026-04-24 03:51 | 32.77969 | -80.58646 | 23073 ft | 288 kts | 25° |
| 2026-04-24 03:52 | 32.79766 | -80.57585 | 23071 ft | 288 kts | 25° |
| 2026-04-24 03:52 | 32.81533 | -80.56534 | 23068 ft | 289 kts | 25° |
| 2026-04-24 03:52 | 32.83335 | -80.55462 | 23067 ft | 289 kts | 25° |
| 2026-04-24 03:52 | 32.85135 | -80.54393 | 23068 ft | 289 kts | 25° |
| 2026-04-24 03:53 | 32.86937 | -80.53321 | 23075 ft | 289 kts | 25° |
| 2026-04-24 03:53 | 32.88735 | -80.52251 | 23075 ft | 289 kts | 25° |
| 2026-04-24 03:53 | 32.90534 | -80.51180 | 23075 ft | 289 kts | 25° |
| 2026-04-24 03:53 | 32.92332 | -80.50109 | 23074 ft | 289 kts | 25° |
| 2026-04-24 03:54 | 32.94128 | -80.49039 | 23072 ft | 289 kts | 25° |
| 2026-04-24 03:54 | 32.95924 | -80.47969 | 23071 ft | 288 kts | 25° |
| 2026-04-24 03:54 | 32.97722 | -80.46896 | 23071 ft | 288 kts | 25° |
| 2026-04-24 03:54 | 32.99515 | -80.45827 | 23073 ft | 288 kts | 25° |
| 2026-04-24 03:55 | 33.01286 | -80.44770 | 23070 ft | 288 kts | 25° |
| 2026-04-24 03:55 | 33.03080 | -80.43698 | 23070 ft | 288 kts | 25° |
| 2026-04-24 03:55 | 33.04870 | -80.42629 | 23060 ft | 288 kts | 25° |
| 2026-04-24 03:55 | 33.06667 | -80.41555 | 23060 ft | 288 kts | 25° |
| 2026-04-24 03:56 | 33.08460 | -80.40483 | 23059 ft | 288 kts | 25° |
| 2026-04-24 03:56 | 33.10252 | -80.39411 | 23059 ft | 288 kts | 25° |
| 2026-04-24 03:56 | 33.12046 | -80.38337 | 23058 ft | 288 kts | 25° |
| 2026-04-24 03:56 | 33.13836 | -80.37265 | 23058 ft | 288 kts | 25° |
| 2026-04-24 03:57 | 33.15626 | -80.36192 | 23058 ft | 288 kts | 25° |
| 2026-04-24 03:57 | 33.17421 | -80.35117 | 23058 ft | 288 kts | 25° |
| 2026-04-24 03:57 | 33.19211 | -80.34044 | 23058 ft | 288 kts | 25° |
| 2026-04-24 03:57 | 33.21003 | -80.32968 | 23058 ft | 288 kts | 25° |
| 2026-04-24 03:58 | 33.22795 | -80.31893 | 23058 ft | 288 kts | 25° |
| 2026-04-24 03:58 | 33.24584 | -80.30818 | 23058 ft | 288 kts | 25° |
| 2026-04-24 03:58 | 33.26356 | -80.29754 | 23058 ft | 288 kts | 25° |
| 2026-04-24 03:58 | 33.28150 | -80.28676 | 23058 ft | 288 kts | 25° |
| 2026-04-24 03:59 | 33.29942 | -80.27598 | 23070 ft | 288 kts | 25° |
| 2026-04-24 03:59 | 33.31731 | -80.26522 | 23068 ft | 288 kts | 25° |
| 2026-04-24 03:59 | 33.33525 | -80.25442 | 23068 ft | 288 kts | 25° |
| 2026-04-24 03:59 | 33.35322 | -80.24360 | 23064 ft | 288 kts | 25° |
| 2026-04-24 04:00 | 33.36507 | -80.23646 | 23062 ft | 288 kts | 25° |
| 2026-04-24 04:00 | 33.38893 | -80.22209 | 23062 ft | 288 kts | 25° |
| 2026-04-24 04:00 | 33.40684 | -80.21129 | 23062 ft | 288 kts | 25° |
| 2026-04-24 04:00 | 33.42477 | -80.20047 | 23061 ft | 288 kts | 25° |
| 2026-04-24 04:01 | 33.43665 | -80.19330 | 23064 ft | 288 kts | 25° |
| 2026-04-24 04:01 | 33.45458 | -80.18248 | 23064 ft | 288 kts | 25° |
| 2026-04-24 04:01 | 33.47255 | -80.17162 | 23065 ft | 288 kts | 25° |
| 2026-04-24 04:01 | 33.49048 | -80.16078 | 23065 ft | 289 kts | 25° |
| 2026-04-24 04:02 | 33.50839 | -80.14996 | 23065 ft | 289 kts | 25° |
| 2026-04-24 04:02 | 33.52633 | -80.13911 | 23065 ft | 289 kts | 25° |
| 2026-04-24 04:02 | 33.54430 | -80.12823 | 23065 ft | 289 kts | 25° |
| 2026-04-24 04:02 | 33.56226 | -80.11736 | 23071 ft | 289 kts | 25° |
| 2026-04-24 04:03 | 33.58001 | -80.10661 | 23071 ft | 289 kts | 25° |
| 2026-04-24 04:03 | 33.59799 | -80.09572 | 23070 ft | 289 kts | 25° |
| 2026-04-24 04:03 | 33.61594 | -80.08483 | 23069 ft | 289 kts | 25° |
| 2026-04-24 04:03 | 33.63390 | -80.07394 | 23068 ft | 289 kts | 25° |
| 2026-04-24 04:04 | 33.65189 | -80.06302 | 23066 ft | 290 kts | 25° |
| 2026-04-24 04:04 | 33.66986 | -80.05212 | 23064 ft | 290 kts | 25° |
| 2026-04-24 04:04 | 33.68785 | -80.04119 | 23057 ft | 290 kts | 25° |
| 2026-04-24 04:04 | 33.70582 | -80.03027 | 23058 ft | 290 kts | 25° |
| 2026-04-24 04:05 | 33.72381 | -80.01934 | 23057 ft | 290 kts | 25° |
| 2026-04-24 04:05 | 33.74181 | -80.00839 | 23058 ft | 290 kts | 25° |
| 2026-04-24 04:05 | 33.75955 | -79.99760 | 23047 ft | 290 kts | 25° |
| 2026-04-24 04:05 | 33.77753 | -79.98666 | 23047 ft | 290 kts | 25° |
| 2026-04-24 04:06 | 33.79552 | -79.97570 | 23046 ft | 290 kts | 25° |
| 2026-04-24 04:06 | 33.81351 | -79.96474 | 23048 ft | 290 kts | 25° |
| 2026-04-24 04:06 | 33.83151 | -79.95377 | 23048 ft | 290 kts | 25° |
| 2026-04-24 04:06 | 33.84949 | -79.94281 | 23047 ft | 290 kts | 25° |
| 2026-04-24 04:07 | 33.86757 | -79.93177 | 23047 ft | 290 kts | 25° |
| 2026-04-24 04:07 | 33.88558 | -79.92078 | 23047 ft | 290 kts | 25° |
| 2026-04-24 04:07 | 33.90339 | -79.90990 | 23048 ft | 290 kts | 25° |
| 2026-04-24 04:07 | 33.92138 | -79.89891 | 23044 ft | 290 kts | 25° |
| 2026-04-24 04:08 | 33.93939 | -79.88790 | 23045 ft | 290 kts | 25° |
| 2026-04-24 04:08 | 33.95738 | -79.87690 | 23045 ft | 290 kts | 25° |
| 2026-04-24 04:08 | 33.97540 | -79.86588 | 23049 ft | 290 kts | 25° |
| 2026-04-24 04:08 | 33.99338 | -79.85486 | 23050 ft | 290 kts | 25° |
| 2026-04-24 04:09 | 34.01137 | -79.84385 | 23048 ft | 290 kts | 25° |
| 2026-04-24 04:09 | 34.02937 | -79.83282 | 23048 ft | 290 kts | 25° |
| 2026-04-24 04:09 | 34.04738 | -79.82178 | 23049 ft | 290 kts | 25° |
| 2026-04-24 04:09 | 34.06543 | -79.81071 | 23050 ft | 291 kts | 25° |
| 2026-04-24 04:10 | 34.08346 | -79.79965 | 23051 ft | 291 kts | 25° |
| 2026-04-24 04:10 | 34.10156 | -79.78854 | 23051 ft | 292 kts | 25° |
| 2026-04-24 04:10 | 34.11963 | -79.77744 | 23051 ft | 292 kts | 25° |
| 2026-04-24 04:11 | 34.15590 | -79.75514 | 23052 ft | 292 kts | 25° |
| 2026-04-24 04:11 | 34.17379 | -79.74414 | 23051 ft | 292 kts | 25° |
| 2026-04-24 04:11 | 34.19191 | -79.73299 | 23052 ft | 292 kts | 25° |
| 2026-04-24 04:11 | 34.21007 | -79.72181 | 23051 ft | 292 kts | 25° |
| 2026-04-24 04:12 | 34.22815 | -79.71067 | 23052 ft | 292 kts | 25° |
| 2026-04-24 04:12 | 34.24625 | -79.69952 | 23052 ft | 292 kts | 25° |
| 2026-04-24 04:12 | 34.26439 | -79.68833 | 23052 ft | 292 kts | 25° |
| 2026-04-24 04:12 | 34.28248 | -79.67717 | 23032 ft | 292 kts | 25° |
| 2026-04-24 04:13 | 34.30059 | -79.66599 | 23040 ft | 292 kts | 25° |
| 2026-04-24 04:13 | 34.31867 | -79.65483 | 23033 ft | 292 kts | 25° |
| 2026-04-24 04:13 | 34.33680 | -79.64363 | 23033 ft | 291 kts | 25° |
| 2026-04-24 04:13 | 34.35485 | -79.63247 | 23017 ft | 291 kts | 25° |
| 2026-04-24 04:14 | 34.37290 | -79.62131 | 23031 ft | 291 kts | 25° |
| 2026-04-24 04:14 | 34.39092 | -79.61016 | 23020 ft | 291 kts | 25° |
| 2026-04-24 04:14 | 34.40895 | -79.59900 | 23029 ft | 291 kts | 25° |
| 2026-04-24 04:14 | 34.42675 | -79.58798 | 23024 ft | 291 kts | 25° |
| 2026-04-24 04:15 | 34.44475 | -79.57683 | 23016 ft | 291 kts | 25° |
| 2026-04-24 04:15 | 34.46277 | -79.56566 | 23009 ft | 291 kts | 25° |
| 2026-04-24 04:15 | 34.48079 | -79.55448 | 23018 ft | 291 kts | 25° |
| 2026-04-24 04:15 | 34.49881 | -79.54330 | 23017 ft | 291 kts | 25° |
| 2026-04-24 04:16 | 34.51685 | -79.53210 | 23014 ft | 291 kts | 25° |
| 2026-04-24 04:16 | 34.53486 | -79.52091 | 23019 ft | 291 kts | 25° |
| 2026-04-24 04:16 | 34.55282 | -79.50966 | 23028 ft | 291 kts | 26° |
| 2026-04-24 04:16 | 34.57043 | -79.49769 | 23028 ft | 290 kts | 27° |
| 2026-04-24 04:17 | 34.58814 | -79.48587 | 23026 ft | 290 kts | 27° |
| 2026-04-24 04:17 | 34.60582 | -79.47409 | 23029 ft | 290 kts | 27° |
| 2026-04-24 04:17 | 34.62348 | -79.46219 | 23024 ft | 290 kts | 27° |
| 2026-04-24 04:17 | 34.64117 | -79.45026 | 23032 ft | 290 kts | 27° |
| 2026-04-24 04:18 | 34.65881 | -79.43838 | 23033 ft | 290 kts | 27° |
| 2026-04-24 04:18 | 34.67648 | -79.42649 | 23035 ft | 290 kts | 27° |
| 2026-04-24 04:18 | 34.69414 | -79.41459 | 23038 ft | 291 kts | 27° |
| 2026-04-24 04:18 | 34.71187 | -79.40264 | 23039 ft | 291 kts | 27° |
| 2026-04-24 04:19 | 34.72958 | -79.39066 | 23039 ft | 292 kts | 27° |
| 2026-04-24 04:19 | 34.74709 | -79.37881 | 23027 ft | 292 kts | 27° |
| 2026-04-24 04:19 | 34.76484 | -79.36679 | 23040 ft | 292 kts | 27° |
| 2026-04-24 04:19 | 34.78262 | -79.35476 | 23045 ft | 292 kts | 27° |
| 2026-04-24 04:20 | 34.80037 | -79.34274 | 23037 ft | 292 kts | 27° |
| 2026-04-24 04:20 | 34.81811 | -79.33072 | 23037 ft | 292 kts | 27° |
| 2026-04-24 04:20 | 34.83588 | -79.31867 | 23037 ft | 292 kts | 27° |
| 2026-04-24 04:20 | 34.85361 | -79.30665 | 23026 ft | 292 kts | 27° |
| 2026-04-24 04:21 | 34.87136 | -79.29460 | 23036 ft | 292 kts | 27° |
| 2026-04-24 04:21 | 34.88911 | -79.28255 | 23028 ft | 292 kts | 27° |
| 2026-04-24 04:21 | 34.90684 | -79.27051 | 23030 ft | 292 kts | 27° |
| 2026-04-24 04:21 | 34.92439 | -79.25858 | 23027 ft | 292 kts | 27° |
| 2026-04-24 04:22 | 34.94215 | -79.24651 | 23025 ft | 292 kts | 27° |
| 2026-04-24 04:22 | 34.95989 | -79.23443 | 23015 ft | 292 kts | 27° |
| 2026-04-24 04:22 | 34.97763 | -79.22236 | 23018 ft | 292 kts | 27° |
| 2026-04-24 04:22 | 34.99538 | -79.21028 | 23009 ft | 292 kts | 27° |
| 2026-04-24 04:23 | 35.01309 | -79.19821 | 23000 ft | 292 kts | 27° |
| 2026-04-24 04:23 | 35.03084 | -79.18611 | 22996 ft | 292 kts | 27° |
| 2026-04-24 04:23 | 35.04858 | -79.17401 | 22999 ft | 292 kts | 27° |
| 2026-04-24 04:23 | 35.06640 | -79.16185 | 22998 ft | 293 kts | 27° |
| 2026-04-24 04:24 | 35.08415 | -79.14973 | 22989 ft | 293 kts | 27° |
| 2026-04-24 04:24 | 35.10190 | -79.13761 | 22997 ft | 292 kts | 27° |
| 2026-04-24 04:24 | 35.11969 | -79.12545 | 22993 ft | 292 kts | 27° |
| 2026-04-24 04:24 | 35.13744 | -79.11331 | 22996 ft | 292 kts | 27° |
| 2026-04-24 04:25 | 35.15519 | -79.10117 | 22990 ft | 293 kts | 27° |
| 2026-04-24 04:25 | 35.17294 | -79.08902 | 22992 ft | 292 kts | 27° |
| 2026-04-24 04:25 | 35.19071 | -79.07686 | 22995 ft | 292 kts | 27° |
| 2026-04-24 04:25 | 35.20845 | -79.06470 | 22990 ft | 292 kts | 27° |
| 2026-04-24 04:26 | 35.22624 | -79.05251 | 22994 ft | 292 kts | 27° |
| 2026-04-24 04:26 | 35.24397 | -79.04035 | 22994 ft | 292 kts | 27° |
| 2026-04-24 04:26 | 35.26148 | -79.02833 | 23001 ft | 292 kts | 27° |
| 2026-04-24 04:26 | 35.27943 | -79.01601 | 22995 ft | 292 kts | 27° |
| 2026-04-24 04:27 | 35.29687 | -79.00403 | 23000 ft | 291 kts | 27° |
| 2026-04-24 04:27 | 35.31452 | -78.99190 | 22999 ft | 291 kts | 27° |
| 2026-04-24 04:27 | 35.33219 | -78.97975 | 22993 ft | 291 kts | 27° |
| 2026-04-24 04:27 | 35.34983 | -78.96762 | 22988 ft | 291 kts | 27° |
| 2026-04-24 04:28 | 35.36750 | -78.95546 | 22992 ft | 291 kts | 27° |
| 2026-04-24 04:28 | 35.38516 | -78.94330 | 22980 ft | 291 kts | 27° |
| 2026-04-24 04:28 | 35.40279 | -78.93115 | 22999 ft | 291 kts | 27° |
| 2026-04-24 04:28 | 35.42043 | -78.91899 | 22999 ft | 291 kts | 27° |
| 2026-04-24 04:29 | 35.43809 | -78.90682 | 22995 ft | 291 kts | 27° |
| 2026-04-24 04:29 | 35.45573 | -78.89464 | 22999 ft | 291 kts | 27° |
| 2026-04-24 04:29 | 35.47338 | -78.88246 | 23000 ft | 291 kts | 27° |
| 2026-04-24 04:29 | 35.49102 | -78.87027 | 22997 ft | 291 kts | 27° |
| 2026-04-24 04:30 | 35.50867 | -78.85808 | 22996 ft | 291 kts | 27° |
| 2026-04-24 04:30 | 35.52628 | -78.84590 | 22991 ft | 291 kts | 27° |
| 2026-04-24 04:30 | 35.54389 | -78.83372 | 22999 ft | 291 kts | 27° |
| 2026-04-24 04:30 | 35.56154 | -78.82151 | 22995 ft | 291 kts | 27° |
| 2026-04-24 04:31 | 35.57892 | -78.80947 | 22995 ft | 291 kts | 27° |
| 2026-04-24 04:31 | 35.59677 | -78.79710 | 22993 ft | 291 kts | 27° |
| 2026-04-24 04:31 | 35.61420 | -78.78502 | 22988 ft | 291 kts | 27° |
| 2026-04-24 04:31 | 35.63184 | -78.77279 | 22989 ft | 291 kts | 27° |
| 2026-04-24 04:32 | 35.64948 | -78.76055 | 22984 ft | 291 kts | 27° |
| 2026-04-24 04:32 | 35.66713 | -78.74829 | 22990 ft | 291 kts | 27° |
| 2026-04-24 04:32 | 35.68474 | -78.73606 | 22986 ft | 291 kts | 27° |
| 2026-04-24 04:32 | 35.70239 | -78.72380 | 22983 ft | 291 kts | 27° |
| 2026-04-24 04:33 | 35.72004 | -78.71152 | 22988 ft | 291 kts | 27° |
| 2026-04-24 04:33 | 35.73762 | -78.69929 | 22982 ft | 291 kts | 27° |
| 2026-04-24 04:33 | 35.75523 | -78.68702 | 22983 ft | 290 kts | 27° |
| 2026-04-24 04:33 | 35.77282 | -78.67476 | 22981 ft | 291 kts | 27° |
| 2026-04-24 04:34 | 35.79045 | -78.66251 | 22978 ft | 291 kts | 27° |
| 2026-04-24 04:34 | 35.80805 | -78.65024 | 22978 ft | 291 kts | 27° |
| 2026-04-24 04:34 | 35.82568 | -78.63794 | 22978 ft | 291 kts | 27° |
| 2026-04-24 04:34 | 35.84307 | -78.62579 | 22978 ft | 291 kts | 27° |
| 2026-04-24 04:35 | 35.86069 | -78.61350 | 22988 ft | 291 kts | 27° |
| 2026-04-24 04:35 | 35.87832 | -78.60118 | 22989 ft | 291 kts | 27° |
| 2026-04-24 04:35 | 35.89593 | -78.58888 | 22989 ft | 291 kts | 27° |
| 2026-04-24 04:35 | 35.91358 | -78.57653 | 22990 ft | 291 kts | 27° |
| 2026-04-24 04:36 | 35.93121 | -78.56420 | 22991 ft | 291 kts | 27° |
| 2026-04-24 04:36 | 35.94883 | -78.55186 | 22991 ft | 291 kts | 27° |
| 2026-04-24 04:36 | 35.96643 | -78.53954 | 22993 ft | 291 kts | 27° |
| 2026-04-24 04:36 | 35.98405 | -78.52719 | 22993 ft | 291 kts | 27° |
| 2026-04-24 04:37 | 36.00148 | -78.51497 | 22994 ft | 291 kts | 27° |
| 2026-04-24 04:37 | 36.01912 | -78.50260 | 22994 ft | 291 kts | 27° |
| 2026-04-24 04:37 | 36.03670 | -78.49026 | 22994 ft | 291 kts | 27° |
| 2026-04-24 04:37 | 36.05428 | -78.47791 | 22994 ft | 291 kts | 27° |
| 2026-04-24 04:38 | 36.07188 | -78.46555 | 22994 ft | 291 kts | 27° |
| 2026-04-24 04:38 | 36.08949 | -78.45317 | 22994 ft | 291 kts | 27° |
| 2026-04-24 04:38 | 36.10707 | -78.44081 | 22991 ft | 291 kts | 27° |
| 2026-04-24 04:38 | 36.12467 | -78.42843 | 22993 ft | 291 kts | 27° |
| 2026-04-24 04:39 | 36.14225 | -78.41605 | 22992 ft | 291 kts | 27° |
| 2026-04-24 04:39 | 36.15989 | -78.40363 | 22990 ft | 291 kts | 27° |
| 2026-04-24 04:39 | 36.17749 | -78.39122 | 22990 ft | 291 kts | 27° |
| 2026-04-24 04:39 | 36.19510 | -78.37880 | 22991 ft | 291 kts | 27° |
| 2026-04-24 04:40 | 36.21267 | -78.36641 | 22992 ft | 291 kts | 27° |
| 2026-04-24 04:40 | 36.23024 | -78.35401 | 22992 ft | 290 kts | 27° |
| 2026-04-24 04:40 | 36.24755 | -78.34179 | 22991 ft | 290 kts | 27° |
| 2026-04-24 04:40 | 36.26512 | -78.32937 | 22990 ft | 290 kts | 27° |
| 2026-04-24 04:41 | 36.28264 | -78.31698 | 22986 ft | 290 kts | 27° |
| 2026-04-24 04:41 | 36.30021 | -78.30455 | 22985 ft | 290 kts | 27° |
| 2026-04-24 04:41 | 36.31770 | -78.29218 | 22984 ft | 290 kts | 27° |
| 2026-04-24 04:41 | 36.33531 | -78.27971 | 22983 ft | 290 kts | 27° |
| 2026-04-24 04:42 | 36.35285 | -78.26729 | 22987 ft | 290 kts | 27° |
| 2026-04-24 04:42 | 36.37036 | -78.25490 | 22981 ft | 290 kts | 26° |
| 2026-04-24 04:42 | 36.38899 | -78.24598 | 22969 ft | 286 kts | 11° |
| 2026-04-24 04:42 | 36.40829 | -78.24012 | 22970 ft | 286 kts | 11° |
| 2026-04-24 04:43 | 36.42756 | -78.23404 | 22974 ft | 286 kts | 12° |
| 2026-04-24 04:43 | 36.44653 | -78.22798 | 22973 ft | 285 kts | 12° |
| 2026-04-24 04:43 | 36.46580 | -78.22189 | 22972 ft | 285 kts | 11° |
| 2026-04-24 04:43 | 36.48506 | -78.21583 | 22970 ft | 285 kts | 11° |
| 2026-04-24 04:44 | 36.50428 | -78.20976 | 22973 ft | 285 kts | 11° |
| 2026-04-24 04:44 | 36.52353 | -78.20367 | 22972 ft | 285 kts | 11° |
| 2026-04-24 04:44 | 36.54277 | -78.19758 | 22970 ft | 285 kts | 11° |
| 2026-04-24 04:44 | 36.56199 | -78.19150 | 22963 ft | 285 kts | 11° |
| 2026-04-24 04:45 | 36.58123 | -78.18541 | 22998 ft | 285 kts | 11° |
| 2026-04-24 04:45 | 36.60045 | -78.17932 | 23001 ft | 285 kts | 11° |
| 2026-04-24 04:45 | 36.61971 | -78.17321 | 23004 ft | 285 kts | 11° |
| 2026-04-24 04:45 | 36.63894 | -78.16712 | 23007 ft | 285 kts | 11° |
| 2026-04-24 04:46 | 36.65822 | -78.16100 | 23015 ft | 285 kts | 11° |
| 2026-04-24 04:46 | 36.67743 | -78.15490 | 23016 ft | 284 kts | 11° |
| 2026-04-24 04:46 | 36.69661 | -78.14881 | 23014 ft | 284 kts | 11° |
| 2026-04-24 04:46 | 36.71574 | -78.14273 | 23014 ft | 284 kts | 11° |
| 2026-04-24 04:47 | 36.73488 | -78.13664 | 23010 ft | 284 kts | 11° |
| 2026-04-24 04:47 | 36.75403 | -78.13055 | 23009 ft | 284 kts | 11° |
| 2026-04-24 04:47 | 36.77314 | -78.12447 | 23006 ft | 284 kts | 11° |
| 2026-04-24 04:47 | 36.79225 | -78.11838 | 23003 ft | 284 kts | 11° |
| 2026-04-24 04:48 | 36.81138 | -78.11229 | 23002 ft | 284 kts | 11° |
| 2026-04-24 04:48 | 36.83052 | -78.10619 | 22997 ft | 284 kts | 11° |
| 2026-04-24 04:48 | 36.84963 | -78.10009 | 22994 ft | 284 kts | 11° |
| 2026-04-24 04:48 | 36.86877 | -78.09399 | 22989 ft | 284 kts | 11° |
| 2026-04-24 04:49 | 36.88765 | -78.08796 | 22992 ft | 283 kts | 11° |
| 2026-04-24 04:49 | 36.90676 | -78.08185 | 22953 ft | 283 kts | 11° |
| 2026-04-24 04:49 | 36.92585 | -78.07575 | 22952 ft | 283 kts | 11° |
| 2026-04-24 04:49 | 36.94491 | -78.06966 | 22951 ft | 283 kts | 11° |
| 2026-04-24 04:50 | 36.95778 | -78.06555 | 22950 ft | 283 kts | 11° |
| 2026-04-24 04:50 | 36.97684 | -78.05944 | 22950 ft | 283 kts | 11° |
| 2026-04-24 04:50 | 36.99587 | -78.05335 | 22950 ft | 282 kts | 11° |
| 2026-04-24 04:50 | 37.01493 | -78.04725 | 22951 ft | 283 kts | 11° |
| 2026-04-24 04:51 | 37.03397 | -78.04115 | 22950 ft | 282 kts | 11° |
| 2026-04-24 04:51 | 37.05277 | -78.03511 | 22950 ft | 282 kts | 11° |
| 2026-04-24 04:51 | 37.07179 | -78.02901 | 22949 ft | 282 kts | 11° |
| 2026-04-24 04:51 | 37.09083 | -78.02290 | 22949 ft | 282 kts | 11° |
| 2026-04-24 04:52 | 37.10998 | -78.01675 | 22958 ft | 282 kts | 11° |
| 2026-04-24 04:52 | 37.12901 | -78.01063 | 22951 ft | 282 kts | 11° |
| 2026-04-24 04:52 | 37.14800 | -78.00453 | 22950 ft | 282 kts | 11° |
| 2026-04-24 04:52 | 37.16699 | -77.99842 | 22950 ft | 282 kts | 11° |
| 2026-04-24 04:53 | 37.18598 | -77.99230 | 22951 ft | 281 kts | 11° |
| 2026-04-24 04:53 | 37.20494 | -77.98620 | 22951 ft | 282 kts | 11° |
| 2026-04-24 04:53 | 37.22369 | -77.98016 | 22949 ft | 282 kts | 11° |
| 2026-04-24 04:53 | 37.24271 | -77.97403 | 22948 ft | 282 kts | 11° |
| 2026-04-24 04:54 | 37.26170 | -77.96790 | 22944 ft | 282 kts | 11° |
| 2026-04-24 04:54 | 37.28072 | -77.96176 | 22941 ft | 282 kts | 11° |
| 2026-04-24 04:54 | 37.29973 | -77.95562 | 22947 ft | 282 kts | 10° |
| 2026-04-24 04:54 | 37.31875 | -77.94948 | 22943 ft | 282 kts | 10° |
| 2026-04-24 04:55 | 37.33773 | -77.94335 | 22950 ft | 282 kts | 10° |
| 2026-04-24 04:55 | 37.35672 | -77.93721 | 22941 ft | 282 kts | 10° |
| 2026-04-24 04:55 | 37.37573 | -77.93105 | 22941 ft | 282 kts | 10° |
| 2026-04-24 04:55 | 37.39471 | -77.92491 | 22937 ft | 282 kts | 10° |
| 2026-04-24 04:56 | 37.41369 | -77.91877 | 22944 ft | 282 kts | 10° |
| 2026-04-24 04:56 | 37.43248 | -77.91268 | 22939 ft | 282 kts | 10° |
| 2026-04-24 04:56 | 37.45149 | -77.90651 | 22943 ft | 282 kts | 10° |
| 2026-04-24 04:56 | 37.47047 | -77.90036 | 22942 ft | 282 kts | 10° |
| 2026-04-24 04:57 | 37.48947 | -77.89419 | 22936 ft | 282 kts | 10° |
| 2026-04-24 04:57 | 37.50844 | -77.88803 | 22939 ft | 282 kts | 10° |
| 2026-04-24 04:57 | 37.52745 | -77.88186 | 22936 ft | 282 kts | 10° |
| 2026-04-24 04:57 | 37.54642 | -77.87569 | 22938 ft | 282 kts | 10° |
| 2026-04-24 04:58 | 37.56543 | -77.86951 | 22941 ft | 282 kts | 10° |
| 2026-04-24 04:58 | 37.58445 | -77.86331 | 22936 ft | 282 kts | 10° |
| 2026-04-24 04:58 | 37.60346 | -77.85712 | 22936 ft | 281 kts | 10° |
| 2026-04-24 04:58 | 37.62239 | -77.85096 | 22936 ft | 281 kts | 10° |
| 2026-04-24 04:59 | 37.64114 | -77.84341 | 22940 ft | 285 kts | 20° |
| 2026-04-24 04:59 | 37.65874 | -77.83230 | 22939 ft | 286 kts | 22° |
| 2026-04-24 04:59 | 37.67659 | -77.82117 | 22939 ft | 286 kts | 21° |
| 2026-04-24 04:59 | 37.69446 | -77.81016 | 22940 ft | 286 kts | 21° |
| 2026-04-24 05:00 | 37.71230 | -77.79908 | 22940 ft | 286 kts | 21° |
| 2026-04-24 05:00 | 37.73016 | -77.78793 | 22940 ft | 286 kts | 21° |
| 2026-04-24 05:00 | 37.74805 | -77.77678 | 22936 ft | 286 kts | 21° |
| 2026-04-24 05:00 | 37.76589 | -77.76566 | 22936 ft | 286 kts | 21° |
| 2026-04-24 05:01 | 37.78373 | -77.75454 | 22938 ft | 286 kts | 21° |
| 2026-04-24 05:01 | 37.80158 | -77.74340 | 22934 ft | 286 kts | 21° |
| 2026-04-24 05:01 | 37.81942 | -77.73226 | 22935 ft | 286 kts | 21° |
| 2026-04-24 05:01 | 37.83725 | -77.72112 | 22933 ft | 286 kts | 21° |
| 2026-04-24 05:02 | 37.85510 | -77.70996 | 22932 ft | 286 kts | 21° |
| 2026-04-24 05:02 | 37.87298 | -77.69879 | 22931 ft | 286 kts | 21° |
| 2026-04-24 05:02 | 37.89078 | -77.68765 | 22930 ft | 286 kts | 22° |
| 2026-04-24 05:02 | 37.90862 | -77.67647 | 22930 ft | 286 kts | 21° |
| 2026-04-24 05:03 | 37.92626 | -77.66543 | 22930 ft | 286 kts | 22° |
| 2026-04-24 05:03 | 37.94416 | -77.65421 | 22933 ft | 286 kts | 22° |
| 2026-04-24 05:03 | 37.96198 | -77.64303 | 22933 ft | 286 kts | 22° |
| 2026-04-24 05:03 | 37.97985 | -77.63182 | 22928 ft | 286 kts | 22° |
| 2026-04-24 05:04 | 37.99767 | -77.62063 | 22935 ft | 286 kts | 22° |
| 2026-04-24 05:04 | 38.01554 | -77.60941 | 22928 ft | 287 kts | 22° |
| 2026-04-24 05:04 | 38.03345 | -77.59815 | 22927 ft | 287 kts | 22° |
| 2026-04-24 05:04 | 38.05129 | -77.58694 | 22930 ft | 287 kts | 21° |
| 2026-04-24 05:05 | 38.06922 | -77.57567 | 22926 ft | 287 kts | 21° |
| 2026-04-24 05:05 | 38.08713 | -77.56439 | 22926 ft | 287 kts | 21° |
| 2026-04-24 05:05 | 38.10479 | -77.55325 | 22927 ft | 287 kts | 21° |
| 2026-04-24 05:05 | 38.12270 | -77.54197 | 22925 ft | 287 kts | 21° |
| 2026-04-24 05:06 | 38.14058 | -77.53070 | 22924 ft | 287 kts | 21° |
| 2026-04-24 05:06 | 38.15850 | -77.51940 | 22923 ft | 287 kts | 21° |
| 2026-04-24 05:06 | 38.17640 | -77.50810 | 22922 ft | 287 kts | 21° |
| 2026-04-24 05:06 | 38.19428 | -77.49680 | 22921 ft | 287 kts | 21° |
| 2026-04-24 05:07 | 38.21216 | -77.48550 | 22918 ft | 287 kts | 21° |
| 2026-04-24 05:07 | 38.23009 | -77.47417 | 22924 ft | 287 kts | 21° |
| 2026-04-24 05:07 | 38.24799 | -77.46285 | 22923 ft | 287 kts | 21° |
| 2026-04-24 05:07 | 38.26590 | -77.45151 | 22923 ft | 288 kts | 21° |
| 2026-04-24 05:08 | 38.28383 | -77.44015 | 22923 ft | 288 kts | 21° |
| 2026-04-24 05:08 | 38.30175 | -77.42880 | 22923 ft | 288 kts | 21° |
| 2026-04-24 05:08 | 38.31964 | -77.41746 | 22922 ft | 288 kts | 21° |
| 2026-04-24 05:08 | 38.33757 | -77.40608 | 22922 ft | 288 kts | 21° |
| 2026-04-24 05:09 | 38.35547 | -77.39472 | 22918 ft | 288 kts | 21° |
| 2026-04-24 05:09 | 38.37340 | -77.38333 | 22919 ft | 288 kts | 21° |
| 2026-04-24 05:09 | 38.39131 | -77.37196 | 22918 ft | 288 kts | 21° |
| 2026-04-24 05:09 | 38.40818 | -77.35794 | 22926 ft | 294 kts | 37° |
| 2026-04-24 05:10 | 38.42210 | -77.33849 | 22924 ft | 298 kts | 45° |
| 2026-04-24 05:10 | 38.43545 | -77.31831 | 22930 ft | 298 kts | 45° |
| 2026-04-24 05:10 | 38.44870 | -77.29842 | 22924 ft | 298 kts | 45° |
| 2026-04-24 05:10 | 38.46218 | -77.27829 | 22924 ft | 298 kts | 45° |
| 2026-04-24 05:11 | 38.47565 | -77.25812 | 22926 ft | 299 kts | 45° |
| 2026-04-24 05:11 | 38.48914 | -77.23789 | 22925 ft | 299 kts | 45° |
| 2026-04-24 05:11 | 38.50264 | -77.21763 | 22922 ft | 299 kts | 45° |
| 2026-04-24 05:11 | 38.51613 | -77.19739 | 22922 ft | 299 kts | 45° |
| 2026-04-24 05:12 | 38.52962 | -77.17713 | 22921 ft | 299 kts | 45° |
| 2026-04-24 05:12 | 38.54309 | -77.15687 | 22920 ft | 299 kts | 45° |
| 2026-04-24 05:12 | 38.55661 | -77.13654 | 22919 ft | 299 kts | 45° |
| 2026-04-24 05:12 | 38.57009 | -77.11625 | 22917 ft | 300 kts | 45° |
| 2026-04-24 05:13 | 38.59691 | -77.07585 | 22914 ft | 300 kts | 45° |
| 2026-04-24 05:13 | 38.61038 | -77.05554 | 22912 ft | 300 kts | 45° |
| 2026-04-24 05:13 | 38.62384 | -77.03522 | 22912 ft | 300 kts | 45° |
| 2026-04-24 05:14 | 38.63738 | -77.01480 | 22914 ft | 301 kts | 45° |
| 2026-04-24 05:14 | 38.65088 | -76.99440 | 22913 ft | 301 kts | 45° |
| 2026-04-24 05:14 | 38.66441 | -76.97395 | 22912 ft | 301 kts | 45° |
| 2026-04-24 05:14 | 38.67791 | -76.95352 | 22905 ft | 300 kts | 45° |
| 2026-04-24 05:15 | 38.69140 | -76.93311 | 22913 ft | 300 kts | 45° |
| 2026-04-24 05:15 | 38.70489 | -76.91267 | 22913 ft | 300 kts | 45° |
| 2026-04-24 05:15 | 38.71837 | -76.89224 | 22912 ft | 300 kts | 45° |
| 2026-04-24 05:15 | 38.73185 | -76.87180 | 22920 ft | 300 kts | 45° |
| 2026-04-24 05:16 | 38.74534 | -76.85132 | 22923 ft | 301 kts | 44° |
| 2026-04-24 05:16 | 38.75887 | -76.83078 | 22924 ft | 301 kts | 45° |
| 2026-04-24 05:16 | 38.77239 | -76.81025 | 22923 ft | 301 kts | 45° |
| 2026-04-24 05:16 | 38.78590 | -76.78970 | 22923 ft | 302 kts | 45° |
| 2026-04-24 05:17 | 38.79940 | -76.76916 | 22923 ft | 301 kts | 45° |
| 2026-04-24 05:17 | 38.81292 | -76.74858 | 22923 ft | 301 kts | 45° |
| 2026-04-24 05:17 | 38.82643 | -76.72800 | 22922 ft | 302 kts | 44° |
| 2026-04-24 05:17 | 38.83975 | -76.70768 | 22923 ft | 301 kts | 44° |
| 2026-04-24 05:18 | 38.85329 | -76.68704 | 22927 ft | 301 kts | 44° |
| 2026-04-24 05:18 | 38.86678 | -76.66645 | 22926 ft | 301 kts | 44° |
| 2026-04-24 05:18 | 38.88030 | -76.64580 | 22925 ft | 301 kts | 44° |
| 2026-04-24 05:18 | 38.89378 | -76.62519 | 22925 ft | 301 kts | 44° |
| 2026-04-24 05:19 | 38.90709 | -76.60485 | 22934 ft | 301 kts | 44° |
| 2026-04-24 05:19 | 38.92071 | -76.58400 | 22935 ft | 301 kts | 44° |
| 2026-04-24 05:19 | 38.93418 | -76.56338 | 22934 ft | 301 kts | 44° |
| 2026-04-24 05:19 | 38.94747 | -76.54300 | 22933 ft | 301 kts | 44° |
| 2026-04-24 05:20 | 38.96093 | -76.52237 | 22931 ft | 301 kts | 44° |
| 2026-04-24 05:20 | 38.97437 | -76.50175 | 22940 ft | 301 kts | 44° |
| 2026-04-24 05:20 | 38.98781 | -76.48111 | 22930 ft | 301 kts | 44° |
| 2026-04-24 05:20 | 39.00131 | -76.46038 | 22912 ft | 301 kts | 44° |
| 2026-04-24 05:21 | 39.01477 | -76.43969 | 22921 ft | 301 kts | 44° |
| 2026-04-24 05:21 | 39.02820 | -76.41903 | 22914 ft | 301 kts | 44° |
| 2026-04-24 05:21 | 39.04162 | -76.39837 | 22913 ft | 300 kts | 44° |
| 2026-04-24 05:21 | 39.05499 | -76.37778 | 22912 ft | 300 kts | 44° |
| 2026-04-24 05:22 | 39.06837 | -76.35717 | 22922 ft | 300 kts | 44° |
| 2026-04-24 05:22 | 39.08174 | -76.33653 | 22921 ft | 300 kts | 44° |
| 2026-04-24 05:22 | 39.09512 | -76.31589 | 22921 ft | 300 kts | 44° |
| 2026-04-24 05:22 | 39.10831 | -76.29552 | 22920 ft | 300 kts | 44° |
| 2026-04-24 05:23 | 39.12168 | -76.27487 | 22917 ft | 300 kts | 44° |
| 2026-04-24 05:23 | 39.13500 | -76.25425 | 22917 ft | 300 kts | 44° |
| 2026-04-24 05:23 | 39.14835 | -76.23366 | 22915 ft | 299 kts | 43° |
| 2026-04-24 05:23 | 39.16308 | -76.21515 | 22906 ft | 294 kts | 35° |
| 2026-04-24 05:24 | 39.17835 | -76.19751 | 22908 ft | 294 kts | 36° |
| 2026-04-24 05:24 | 39.19349 | -76.17971 | 22908 ft | 295 kts | 36° |
| 2026-04-24 05:24 | 39.20863 | -76.16192 | 22919 ft | 294 kts | 35° |
| 2026-04-24 05:24 | 39.22375 | -76.14421 | 22919 ft | 294 kts | 35° |
| 2026-04-24 05:25 | 39.23889 | -76.12649 | 22921 ft | 294 kts | 34° |
| 2026-04-24 05:25 | 39.25402 | -76.10876 | 22921 ft | 293 kts | 34° |
| 2026-04-24 05:25 | 39.26963 | -76.09217 | 22908 ft | 289 kts | 28° |
| 2026-04-24 05:25 | 39.28570 | -76.07708 | 22911 ft | 289 kts | 28° |
| 2026-04-24 05:26 | 39.30186 | -76.06160 | 22906 ft | 289 kts | 29° |
| 2026-04-24 05:26 | 39.31797 | -76.04613 | 22907 ft | 289 kts | 29° |
| 2026-04-24 05:26 | 39.33413 | -76.03068 | 22910 ft | 289 kts | 29° |
| 2026-04-24 05:26 | 39.35029 | -76.01523 | 22904 ft | 289 kts | 29° |
| 2026-04-24 05:27 | 39.36647 | -75.99980 | 22909 ft | 289 kts | 28° |
| 2026-04-24 05:27 | 39.38270 | -75.98453 | 22907 ft | 288 kts | 28° |
| 2026-04-24 05:27 | 39.39894 | -75.96927 | 22907 ft | 289 kts | 28° |
| 2026-04-24 05:27 | 39.41514 | -75.95394 | 22907 ft | 288 kts | 28° |
| 2026-04-24 05:28 | 39.43125 | -75.93869 | 22907 ft | 287 kts | 28° |
| 2026-04-24 05:28 | 39.44736 | -75.92346 | 22910 ft | 286 kts | 28° |
| 2026-04-24 05:28 | 39.46345 | -75.90825 | 22911 ft | 286 kts | 28° |
| 2026-04-24 05:28 | 39.47952 | -75.89303 | 22912 ft | 286 kts | 28° |
| 2026-04-24 05:29 | 39.49558 | -75.87781 | 22910 ft | 286 kts | 28° |
| 2026-04-24 05:29 | 39.51159 | -75.86263 | 22911 ft | 286 kts | 28° |